createdAt,value
2022-12-03T00:01:07.895Z,28.38
2022-12-03T00:03:35.852Z,28.70
2022-12-03T00:06:02.277Z,31.55
2022-12-03T00:08:28.568Z,31.65
2022-12-03T00:10:54.936Z,25.88
2022-12-03T00:13:21.271Z,28.98
2022-12-03T00:15:47.633Z,28.23
2022-12-03T00:18:13.992Z,28.15
2022-12-03T00:20:40.356Z,24.95
2022-12-03T00:23:06.701Z,32.05
2022-12-03T00:25:33.089Z,30.30
2022-12-03T00:27:59.506Z,29.27
2022-12-03T00:30:25.877Z,30.23
2022-12-03T00:32:52.199Z,29.00
2022-12-03T00:35:18.538Z,32.63
2022-12-03T00:37:44.925Z,33.15
2022-12-03T00:40:11.762Z,30.70
2022-12-03T00:42:38.119Z,27.33
2022-12-03T00:45:05.008Z,29.70
2022-12-03T00:47:31.517Z,30.38
2022-12-03T00:49:57.890Z,34.28
2022-12-03T00:52:24.291Z,29.73
2022-12-03T00:54:50.781Z,33.83
2022-12-03T00:57:17.293Z,30.20
2022-12-03T00:59:43.603Z,27.48
2022-12-03T01:02:10.041Z,30.83
2022-12-03T01:04:36.454Z,35.47
2022-12-03T01:07:02.821Z,34.78
2022-12-03T01:09:29.299Z,33.28
2022-12-03T01:11:55.630Z,32.33
2022-12-03T01:14:21.975Z,31.42
2022-12-03T01:16:48.791Z,35.70
2022-12-03T01:19:16.310Z,30.15
2022-12-03T01:21:44.556Z,30.38
2022-12-03T01:24:11.612Z,32.17
2022-12-03T01:26:38.228Z,33.15
2022-12-03T01:29:05.161Z,33.55
2022-12-03T01:31:50.155Z,33.40
2022-12-03T01:34:16.500Z,34.03
2022-12-03T01:36:42.930Z,35.65
2022-12-03T01:39:09.268Z,31.33
2022-12-03T01:41:36.325Z,35.88
2022-12-03T01:44:15.034Z,34.05
2022-12-03T01:46:41.976Z,34.80
2022-12-03T01:49:16.915Z,38.88
2022-12-03T01:51:43.435Z,35.75
2022-12-03T01:54:22.216Z,34.58
2022-12-03T01:56:49.144Z,31.05
2022-12-03T01:59:17.978Z,25.90
2022-12-03T02:01:44.460Z,32.67
2022-12-03T02:04:19.948Z,32.15
2022-12-03T02:06:46.382Z,28.80
2022-12-03T02:09:13.479Z,29.92
2022-12-03T02:11:46.942Z,31.67
2022-12-03T02:14:19.403Z,28.52
2022-12-03T02:16:46.476Z,29.75
2022-12-03T02:19:26.491Z,25.85
2022-12-03T02:22:04.055Z,34.90
2022-12-03T02:24:55.239Z,31.65
2022-12-03T02:27:22.598Z,33.15
2022-12-03T02:29:48.995Z,31.35
2022-12-03T02:32:15.379Z,34.10
2022-12-03T02:34:44.815Z,39.33
2022-12-03T02:37:19.145Z,38.75
2022-12-03T02:39:51.601Z,34.15
2022-12-03T02:42:37.062Z,40.80
2022-12-03T02:45:09.211Z,40.58
2022-12-03T02:47:49.572Z,41.92
2022-12-03T02:50:20.431Z,48.72
2022-12-03T02:52:55.712Z,44.40
2022-12-03T02:55:22.997Z,47.67
2022-12-03T02:57:50.879Z,44.83
2022-12-03T03:00:18.668Z,43.60
2022-12-03T03:02:46.721Z,46.70
2022-12-03T03:05:15.621Z,54.33
2022-12-03T03:07:42.576Z,47.63
2022-12-03T03:10:14.081Z,48.13
2022-12-03T03:12:41.031Z,49.13
2022-12-03T03:15:09.149Z,50.15
2022-12-03T03:17:35.870Z,49.40
2022-12-03T03:20:04.224Z,54.00
2022-12-03T03:22:38.847Z,51.38
2022-12-03T03:25:07.308Z,49.58
2022-12-03T03:27:34.030Z,54.83
2022-12-03T03:30:00.790Z,58.10
2022-12-03T03:32:28.637Z,51.15
2022-12-03T03:34:56.514Z,54.17
2022-12-03T03:37:23.671Z,52.08
2022-12-03T03:39:50.148Z,53.30
2022-12-03T03:42:17.013Z,56.20
2022-12-03T03:44:43.690Z,52.17
2022-12-03T03:47:10.339Z,54.20
2022-12-03T03:49:36.724Z,57.67
2022-12-03T03:52:03.537Z,43.85
2022-12-03T03:54:30.524Z,51.40
2022-12-03T03:56:57.276Z,49.05
2022-12-03T03:59:23.826Z,47.30
2022-12-03T04:01:50.150Z,49.50
2022-12-03T04:04:22.008Z,50.05
2022-12-03T04:06:48.796Z,46.78
2022-12-03T04:09:15.231Z,45.35
2022-12-03T04:12:00.236Z,47.95
2022-12-03T04:14:26.551Z,45.63
2022-12-03T04:16:52.957Z,46.60
2022-12-03T04:19:19.353Z,50.65
2022-12-03T04:22:04.078Z,46.90
2022-12-03T04:24:30.480Z,51.00
2022-12-03T04:27:15.518Z,51.75
2022-12-03T04:29:41.831Z,58.00
2022-12-03T04:32:26.651Z,52.83
2022-12-03T04:35:11.478Z,54.33
2022-12-03T04:37:37.915Z,54.28
2022-12-03T04:40:24.652Z,61.63
2022-12-03T04:42:51.016Z,61.60
2022-12-03T04:45:17.327Z,63.50
2022-12-03T04:47:43.707Z,58.13
2022-12-03T04:50:10.692Z,65.03
2022-12-03T04:52:37.011Z,56.33
2022-12-03T04:55:03.728Z,63.50
2022-12-03T04:57:30.031Z,64.00
2022-12-03T04:59:56.372Z,57.70
2022-12-03T05:02:22.724Z,64.28
2022-12-03T05:04:49.057Z,57.30
2022-12-03T05:07:15.366Z,59.72
2022-12-03T05:09:41.700Z,62.42
2022-12-03T05:12:08.015Z,49.22
2022-12-03T05:14:34.337Z,47.25
2022-12-03T05:17:00.883Z,43.58
2022-12-03T05:19:47.312Z,51.47
2022-12-03T05:22:13.733Z,48.03
2022-12-03T05:24:40.077Z,47.33
2022-12-03T05:27:06.410Z,45.42
2022-12-03T05:29:32.739Z,46.90
2022-12-03T05:31:59.054Z,49.78
2022-12-03T05:34:25.353Z,46.13
2022-12-03T05:36:51.677Z,46.45
2022-12-03T05:39:17.989Z,38.90
2022-12-03T05:42:02.762Z,43.03
2022-12-03T05:44:29.070Z,41.17
2022-12-03T05:46:55.393Z,36.83
2022-12-03T05:49:21.698Z,35.20
2022-12-03T05:54:23.299Z,33.35
2022-12-03T05:56:49.852Z,33.83
2022-12-03T05:59:16.378Z,31.80
2022-12-03T06:01:43.023Z,29.98
2022-12-03T06:04:09.497Z,28.45
2022-12-03T06:06:36.022Z,28.42
2022-12-03T06:09:02.632Z,27.80
2022-12-03T06:11:30.203Z,26.73
2022-12-03T06:13:56.612Z,27.95
2022-12-03T06:16:23.203Z,31.30
2022-12-03T06:18:49.777Z,29.38
2022-12-03T06:21:16.252Z,29.02
2022-12-03T06:23:44.928Z,29.20
2022-12-03T06:26:12.234Z,29.42
2022-12-03T06:28:38.752Z,26.10
2022-12-03T06:31:05.655Z,31.23
2022-12-03T06:33:32.141Z,29.30
2022-12-03T06:35:58.568Z,30.83
2022-12-03T06:38:25.057Z,33.00
2022-12-03T06:40:51.422Z,32.15
2022-12-03T06:43:17.841Z,29.95
2022-12-03T06:45:47.657Z,35.40
2022-12-03T06:48:15.124Z,32.63
2022-12-03T06:50:41.675Z,40.22
2022-12-03T06:53:08.237Z,37.53
2022-12-03T06:55:34.729Z,42.63
2022-12-03T06:58:01.177Z,36.80
2022-12-03T07:00:27.610Z,38.80
2022-12-03T07:02:54.169Z,42.58
2022-12-03T07:05:20.718Z,38.10
2022-12-03T07:07:52.241Z,38.35
2022-12-03T07:10:19.385Z,37.22
2022-12-03T07:12:45.962Z,39.75
2022-12-03T07:15:12.906Z,45.95
2022-12-03T07:17:39.638Z,42.40
2022-12-03T07:20:06.778Z,44.08
2022-12-03T07:22:33.528Z,45.65
2022-12-03T07:24:59.996Z,46.67
2022-12-03T07:27:26.576Z,43.92
2022-12-03T07:29:53.012Z,43.92
2022-12-03T07:32:19.479Z,44.13
2022-12-03T07:34:45.943Z,43.10
2022-12-03T07:37:12.475Z,43.30
2022-12-03T07:39:38.943Z,41.63
2022-12-03T07:42:05.496Z,44.03
2022-12-03T07:44:31.962Z,38.70
2022-12-03T07:46:58.666Z,40.67
2022-12-03T07:49:26.714Z,45.45
2022-12-03T07:51:56.935Z,41.50
2022-12-03T07:54:24.541Z,43.20
2022-12-03T07:56:51.107Z,43.40
2022-12-03T07:59:18.920Z,39.85
2022-12-03T08:01:46.095Z,45.92
2022-12-03T08:04:14.643Z,46.40
2022-12-03T08:06:41.785Z,42.13
2022-12-03T08:09:11.958Z,40.17
2022-12-03T08:11:42.367Z,38.50
2022-12-03T08:14:17.833Z,37.22
2022-12-03T08:16:46.126Z,38.13
2022-12-03T08:19:16.138Z,38.25
2022-12-03T08:21:43.650Z,36.22
2022-12-03T08:24:19.026Z,39.08
2022-12-03T08:26:47.210Z,39.63
2022-12-03T08:29:18.949Z,40.00
2022-12-03T08:31:52.213Z,38.03
2022-12-03T08:34:28.006Z,36.55
2022-12-03T08:37:05.902Z,36.92
2022-12-03T08:39:35.682Z,37.67
2022-12-03T08:42:32.080Z,33.33
2022-12-03T08:45:21.108Z,39.97
2022-12-03T08:47:47.619Z,36.88
2022-12-03T08:50:30.187Z,34.97
2022-12-03T08:53:07.983Z,35.03
2022-12-03T08:55:36.949Z,32.38
2022-12-03T08:58:16.473Z,33.10
2022-12-03T09:00:43.146Z,34.85
2022-12-03T09:03:16.049Z,35.72
2022-12-03T09:08:08.978Z,29.75
2022-12-03T09:10:35.480Z,35.28
2022-12-03T09:13:02.044Z,36.65
2022-12-03T09:15:28.575Z,36.65
2022-12-03T09:17:55.125Z,39.55
2022-12-03T09:20:21.627Z,38.53
2022-12-03T09:22:48.177Z,39.35
2022-12-03T09:25:15.003Z,38.50
2022-12-03T09:27:41.543Z,45.35
2022-12-03T09:30:08.335Z,38.50
2022-12-03T09:32:34.999Z,44.10
2022-12-03T09:35:01.453Z,37.22
2022-12-03T09:37:27.984Z,36.28
2022-12-03T09:39:54.456Z,42.58
2022-12-03T09:42:21.085Z,38.25
2022-12-03T09:44:47.620Z,36.33
2022-12-03T09:47:14.238Z,42.03
2022-12-03T09:49:41.357Z,40.65
2022-12-03T09:52:08.676Z,41.20
2022-12-03T09:54:35.308Z,45.28
2022-12-03T09:57:04.180Z,46.10
2022-12-03T09:59:34.223Z,41.03
2022-12-03T10:02:01.745Z,50.08
2022-12-03T10:04:29.746Z,46.38
2022-12-03T10:06:58.300Z,44.30
2022-12-03T10:09:27.519Z,45.72
2022-12-03T10:11:56.403Z,48.28
2022-12-03T10:14:23.163Z,51.35
2022-12-03T10:16:50.007Z,47.13
2022-12-03T10:19:26.365Z,48.83
2022-12-03T10:21:52.999Z,54.25
2022-12-03T10:24:25.908Z,52.58
2022-12-03T10:29:32.905Z,38.70
2022-12-03T10:32:11.727Z,53.28
2022-12-03T10:34:41.547Z,49.50
2022-12-03T10:37:13.093Z,53.13
2022-12-03T10:39:58.436Z,56.88
2022-12-03T10:42:29.705Z,48.47
2022-12-03T10:45:08.547Z,59.20
2022-12-03T10:47:35.140Z,49.63
2022-12-03T10:50:14.328Z,56.47
2022-12-03T10:52:40.924Z,54.78
2022-12-03T10:55:11.994Z,49.72
2022-12-03T10:57:45.014Z,57.38
2022-12-03T11:00:19.286Z,54.78
2022-12-03T11:02:51.714Z,58.92
2022-12-03T11:05:29.343Z,62.58
2022-12-03T11:07:56.964Z,53.70
2022-12-03T11:10:24.320Z,58.85
2022-12-03T11:13:29.641Z,55.80
2022-12-03T11:15:56.821Z,58.35
2022-12-03T11:18:38.505Z,55.15
2022-12-03T11:21:06.577Z,64.00
2022-12-03T11:23:45.222Z,61.70
2022-12-03T11:26:19.854Z,56.50
2022-12-03T11:28:46.668Z,55.05
2022-12-03T11:31:38.220Z,63.15
2022-12-03T11:34:20.240Z,56.05
2022-12-03T11:37:11.405Z,54.38
2022-12-03T11:39:55.517Z,56.10
2022-12-03T11:42:25.525Z,52.88
2022-12-03T11:45:04.117Z,56.50
2022-12-03T11:47:41.084Z,62.28
2022-12-03T11:50:24.539Z,58.70
2022-12-03T11:52:59.004Z,57.63
2022-12-03T11:55:31.192Z,64.28
2022-12-03T11:58:03.047Z,42.97
2022-12-03T12:00:29.644Z,61.15
2022-12-03T12:02:58.006Z,55.22
2022-12-03T12:05:28.112Z,55.50
2022-12-03T12:07:55.849Z,63.15
2022-12-03T12:10:43.496Z,63.58
2022-12-03T12:13:31.692Z,52.22
2022-12-03T12:15:59.101Z,58.03
2022-12-03T12:18:45.627Z,57.05
2022-12-03T12:21:40.827Z,57.22
2022-12-03T12:24:42.970Z,58.88
2022-12-03T12:27:17.267Z,53.70
2022-12-03T12:29:48.377Z,55.70
2022-12-03T12:32:17.540Z,54.20
2022-12-03T12:34:46.728Z,55.25
2022-12-03T12:37:47.217Z,62.38
2022-12-03T12:40:16.172Z,60.58
2022-12-03T12:42:52.979Z,59.67
2022-12-03T12:45:22.548Z,54.25
2022-12-03T12:48:14.820Z,58.85
2022-12-03T12:50:43.381Z,58.45
2022-12-03T12:53:18.537Z,57.08
2022-12-03T12:55:44.982Z,56.92
2022-12-03T12:58:19.765Z,59.10
2022-12-03T13:00:51.543Z,60.05
2022-12-03T13:03:20.023Z,62.13
2022-12-03T13:05:49.259Z,64.57
2022-12-03T13:08:20.702Z,60.72
2022-12-03T13:10:47.498Z,61.17
2022-12-03T13:13:23.099Z,61.25
2022-12-03T13:15:56.040Z,62.83
2022-12-03T13:20:55.309Z,53.53
2022-12-03T13:23:30.210Z,58.83
2022-12-03T13:26:04.703Z,56.80
2022-12-03T13:28:34.348Z,59.60
2022-12-03T13:31:18.531Z,59.70
2022-12-03T13:33:44.987Z,56.22
2022-12-03T13:36:14.848Z,57.22
2022-12-03T13:38:41.508Z,60.95
2022-12-03T13:41:37.287Z,53.83
2022-12-03T13:44:13.344Z,55.38
2022-12-03T13:46:39.710Z,62.08
2022-12-03T13:49:34.324Z,59.03
2022-12-03T13:52:00.744Z,66.38
2022-12-03T13:54:31.153Z,59.85
2022-12-03T13:56:57.545Z,59.20
2022-12-03T13:59:26.284Z,54.88
2022-12-03T14:01:52.920Z,60.30
2022-12-03T14:04:19.246Z,56.20
2022-12-03T14:06:45.557Z,56.78
2022-12-03T14:09:11.941Z,56.78
2022-12-03T14:11:56.937Z,58.00
2022-12-03T14:14:23.267Z,55.83
2022-12-03T14:16:49.649Z,60.70
2022-12-03T14:19:16.026Z,55.95
2022-12-03T14:21:42.459Z,60.95
2022-12-03T14:24:08.837Z,59.28
2022-12-03T14:26:35.206Z,52.85
2022-12-03T14:29:07.200Z,58.28
2022-12-03T14:31:35.124Z,57.67
2022-12-03T14:34:01.502Z,59.97
2022-12-03T14:36:27.819Z,54.35
2022-12-03T14:38:54.134Z,53.05
2022-12-03T14:41:39.076Z,50.45
2022-12-03T14:44:05.427Z,55.28
2022-12-03T14:46:31.786Z,54.28
2022-12-03T14:48:58.148Z,51.65
2022-12-03T14:51:24.769Z,56.58
2022-12-03T14:53:51.116Z,56.42
2022-12-03T14:56:17.491Z,53.38
2022-12-03T14:58:43.868Z,57.97
2022-12-03T15:01:10.303Z,55.88
2022-12-03T15:03:36.718Z,59.65
2022-12-03T15:06:03.100Z,59.25
2022-12-03T15:08:29.473Z,54.83
2022-12-03T15:10:55.814Z,59.22
2022-12-03T15:13:22.261Z,55.40
2022-12-03T15:15:48.626Z,57.30
2022-12-03T15:18:14.958Z,59.13
2022-12-03T15:20:41.299Z,55.50
2022-12-03T15:23:12.735Z,62.33
2022-12-03T15:28:07.135Z,46.20
2022-12-03T15:30:35.738Z,52.70
2022-12-03T15:33:03.320Z,56.13
2022-12-03T15:35:30.263Z,59.25
2022-12-03T15:37:56.775Z,57.70
2022-12-03T15:40:23.382Z,58.78
2022-12-03T15:42:49.692Z,55.20
2022-12-03T15:45:16.114Z,52.97
2022-12-03T15:47:42.457Z,64.63
2022-12-03T15:50:09.254Z,58.42
2022-12-03T15:52:35.613Z,57.33
2022-12-03T15:55:02.484Z,59.85
2022-12-03T15:57:29.516Z,55.40
2022-12-03T15:59:56.272Z,56.95
2022-12-03T16:02:23.010Z,60.00
2022-12-03T16:04:49.374Z,57.45
2022-12-03T16:07:15.667Z,60.67
2022-12-03T16:09:41.970Z,64.70
2022-12-03T16:12:08.277Z,57.33
2022-12-03T16:14:34.630Z,57.83
2022-12-03T16:17:01.004Z,63.25
2022-12-03T16:19:27.345Z,60.53
2022-12-03T16:21:53.667Z,58.92
2022-12-03T16:24:20.004Z,57.97
2022-12-03T16:26:46.379Z,60.80
2022-12-03T16:29:12.730Z,60.88
2022-12-03T16:31:39.149Z,57.58
2022-12-03T16:34:05.556Z,61.00
2022-12-03T16:36:31.901Z,58.67
2022-12-03T16:38:58.219Z,66.97
2022-12-03T16:41:24.668Z,59.97
2022-12-03T16:43:51.211Z,64.57
2022-12-03T16:46:17.617Z,59.13
2022-12-03T16:48:44.009Z,66.03
2022-12-03T16:51:10.968Z,57.70
2022-12-03T16:53:37.328Z,66.60
2022-12-03T16:56:03.874Z,64.40
2022-12-03T16:58:30.309Z,65.50
2022-12-03T17:00:56.725Z,58.33
2022-12-03T17:03:23.277Z,60.28
2022-12-03T17:05:49.876Z,62.85
2022-12-03T17:08:16.983Z,59.95
2022-12-03T17:10:44.147Z,64.03
2022-12-03T17:13:11.000Z,62.78
2022-12-03T17:15:38.443Z,62.95
2022-12-03T17:18:05.424Z,64.25
2022-12-03T17:20:33.294Z,61.17
2022-12-03T17:23:00.089Z,64.25
2022-12-03T17:25:27.213Z,59.35
2022-12-03T17:27:53.707Z,63.20
2022-12-03T17:30:20.154Z,62.67
2022-12-03T17:32:46.564Z,64.10
2022-12-03T17:35:12.927Z,67.50
2022-12-03T17:37:39.311Z,64.60
2022-12-03T17:40:07.809Z,70.22
2022-12-03T17:42:34.170Z,64.72
2022-12-03T17:45:00.563Z,67.32
2022-12-03T17:47:26.930Z,59.70
2022-12-03T17:49:53.685Z,62.08
2022-12-03T17:52:20.324Z,63.42
2022-12-03T17:57:28.404Z,64.50
2022-12-03T17:59:55.208Z,62.20
2022-12-03T18:02:21.997Z,60.70
2022-12-03T18:04:48.626Z,63.15
2022-12-03T18:07:15.076Z,64.28
2022-12-03T18:09:42.203Z,58.50
2022-12-03T18:12:08.708Z,60.72
2022-12-03T18:14:35.259Z,64.53
2022-12-03T18:17:01.807Z,60.17
2022-12-03T18:19:28.231Z,61.33
2022-12-03T18:21:55.165Z,65.97
2022-12-03T18:24:22.304Z,60.97
2022-12-03T18:26:48.875Z,64.13
2022-12-03T18:29:15.274Z,65.45
2022-12-03T18:31:41.787Z,64.22
2022-12-03T18:34:08.323Z,67.13
2022-12-03T18:36:36.455Z,64.78
2022-12-03T18:39:05.999Z,69.18
2022-12-03T18:41:33.499Z,64.43
2022-12-03T18:44:03.633Z,65.55
2022-12-03T18:46:52.303Z,62.63
2022-12-03T18:49:17.699Z,59.72
2022-12-03T18:51:44.165Z,62.88
2022-12-03T18:54:14.062Z,60.92
2022-12-03T18:56:41.895Z,67.07
2022-12-03T18:59:09.096Z,65.95
2022-12-03T19:01:35.757Z,64.78
2022-12-03T19:04:02.626Z,63.47
2022-12-03T19:06:30.442Z,62.38
2022-12-03T19:08:57.165Z,68.38
2022-12-03T19:11:23.665Z,63.33
2022-12-03T19:13:50.343Z,64.15
2022-12-03T19:16:17.278Z,65.35
2022-12-03T19:18:44.303Z,66.55
2022-12-03T19:21:14.827Z,64.68
2022-12-03T19:23:47.343Z,64.60
2022-12-03T19:26:25.690Z,67.15
2022-12-03T19:28:53.599Z,68.90
2022-12-03T19:31:20.692Z,66.22
2022-12-03T19:33:47.508Z,65.25
2022-12-03T19:36:32.318Z,68.30
2022-12-03T19:38:59.879Z,69.20
2022-12-03T19:41:30.468Z,63.08
2022-12-03T19:43:57.890Z,64.65
2022-12-03T19:46:28.668Z,63.60
2022-12-03T19:48:55.175Z,63.35
2022-12-03T19:51:36.990Z,63.33
2022-12-03T19:54:08.148Z,66.78
2022-12-03T19:56:35.150Z,63.63
2022-12-03T19:59:02.288Z,66.35
2022-12-03T20:01:31.649Z,64.85
2022-12-03T20:04:00.867Z,69.28
2022-12-03T20:06:30.297Z,64.78
2022-12-03T20:09:06.424Z,70.78
2022-12-03T20:11:33.985Z,68.55
2022-12-03T20:14:09.457Z,62.88
2022-12-03T20:16:36.398Z,66.85
2022-12-03T20:19:05.124Z,68.20
2022-12-03T20:21:34.145Z,64.32
2022-12-03T20:24:00.950Z,66.90
2022-12-03T20:26:28.335Z,69.75
2022-12-03T20:28:56.265Z,67.72
2022-12-03T20:31:25.231Z,69.90
2022-12-03T20:33:55.051Z,64.28
2022-12-03T20:36:22.832Z,68.60
2022-12-03T20:38:53.819Z,72.00
2022-12-03T20:41:20.973Z,59.08
2022-12-03T20:43:47.851Z,79.38
2022-12-03T20:46:17.320Z,68.63
2022-12-03T20:48:45.200Z,73.82
2022-12-03T20:51:14.692Z,69.70
2022-12-03T20:53:42.101Z,67.78
2022-12-03T20:56:09.146Z,69.05
2022-12-03T20:58:35.992Z,66.13
2022-12-03T21:01:16.421Z,64.50
2022-12-03T21:03:44.089Z,66.70
2022-12-03T21:06:11.735Z,65.72
2022-12-03T21:08:41.866Z,70.05
2022-12-03T21:11:15.156Z,68.43
2022-12-03T21:13:43.411Z,68.72
2022-12-03T21:16:15.820Z,66.13
2022-12-03T21:18:42.885Z,67.63
2022-12-03T21:21:13.047Z,70.18
2022-12-03T21:23:39.994Z,70.93
2022-12-03T21:26:12.896Z,69.57
2022-12-03T21:31:10.971Z,60.38
2022-12-03T21:33:38.338Z,65.47
2022-12-03T21:36:05.788Z,69.32
2022-12-03T21:38:33.299Z,69.00
2022-12-03T21:41:00.667Z,71.80
2022-12-03T21:43:27.559Z,70.65
2022-12-03T21:45:54.295Z,71.63
2022-12-03T21:48:21.651Z,68.75
2022-12-03T21:51:18.104Z,75.40
2022-12-03T21:53:45.786Z,65.50
2022-12-03T21:56:14.727Z,73.15
2022-12-03T21:58:41.583Z,66.63
2022-12-03T22:01:26.439Z,70.88
2022-12-03T22:03:53.051Z,74.28
2022-12-03T22:06:20.071Z,71.28
2022-12-03T22:08:46.859Z,68.22
2022-12-03T22:11:19.487Z,67.85
2022-12-03T22:13:46.493Z,70.45
2022-12-03T22:16:15.800Z,68.63
2022-12-03T22:18:42.804Z,69.45
2022-12-03T22:21:12.238Z,77.43
2022-12-03T22:23:39.533Z,69.72
2022-12-03T22:26:08.888Z,67.07
2022-12-03T22:28:35.819Z,66.88
2022-12-03T22:31:09.775Z,66.70
2022-12-03T22:33:37.345Z,65.03
2022-12-03T22:36:07.166Z,69.10
2022-12-03T22:38:34.284Z,65.32
2022-12-03T22:41:07.838Z,64.75
2022-12-03T22:43:37.099Z,68.25
2022-12-03T22:46:04.834Z,64.82
2022-12-03T22:48:34.265Z,66.45
2022-12-03T22:51:00.856Z,65.57
2022-12-03T22:53:27.475Z,62.58
2022-12-03T22:55:59.432Z,66.25
2022-12-03T22:58:26.915Z,67.03
2022-12-03T23:00:57.409Z,66.20
2022-12-03T23:03:29.119Z,65.18
2022-12-03T23:05:55.581Z,66.00
2022-12-03T23:08:22.407Z,67.90
2022-12-03T23:10:53.068Z,62.50
2022-12-03T23:13:20.080Z,60.03
2022-12-03T23:15:48.207Z,69.20
2022-12-03T23:18:15.016Z,63.38
2022-12-03T23:20:47.192Z,70.57
2022-12-03T23:23:14.698Z,48.85
2022-12-03T23:25:41.746Z,62.25
2022-12-03T23:28:08.861Z,66.85
2022-12-03T23:30:37.116Z,65.07
2022-12-03T23:33:05.308Z,60.28
2022-12-03T23:35:32.541Z,65.28
2022-12-03T23:37:59.000Z,61.95
2022-12-03T23:40:25.533Z,65.65
2022-12-03T23:42:52.005Z,64.18
2022-12-03T23:45:18.588Z,65.65
2022-12-03T23:47:44.996Z,69.95
2022-12-03T23:50:12.040Z,66.20
2022-12-03T23:52:38.492Z,68.82
2022-12-03T23:57:34.946Z,67.85
